Time;durP1;ratioP1;P1;durP2;ratioP2;P2;SDS_P1;SDS_P2;PMS_P1;PMS_P2;Temp;Humidity;BMP_temperature;BMP_pressure;BME280_temperature;BME280_humidity;BME280_pressure;Samples;Min_cycle;Max_cycle;Signal;HPM_P1;HPM_P2
2023/06/01 00:02:06;;;;;;;7.63;3.47;;;18.00;61.60;;;;;;5115637;28;20105;-68
2023/06/01 00:04:31;;;;;;;5.80;3.60;;;18.00;61.70;;;;;;5113763;28;20055;-68
2023/06/01 00:06:59;;;;;;;8.10;3.70;;;18.00;61.50;;;;;;5115290;28;20039;-68
2023/06/01 00:09:25;;;;;;;4.05;2.90;;;18.00;61.70;;;;;;5115018;28;20045;-71
2023/06/01 00:11:51;;;;;;;7.75;3.55;;;17.90;61.90;;;;;;5114175;28;20539;-68
2023/06/01 00:14:16;;;;;;;12.02;3.60;;;17.90;62.00;;;;;;5114894;28;20434;-67
2023/06/01 00:16:42;;;;;;;7.00;3.28;;;17.90;62.30;;;;;;5114911;28;20062;-69
2023/06/01 00:19:08;;;;;;;7.53;3.55;;;17.90;62.40;;;;;;5115403;28;20073;-67
2023/06/01 00:21:35;;;;;;;7.78;4.03;;;17.80;62.20;;;;;;5114458;28;20510;-68
2023/06/01 00:24:01;;;;;;;7.18;3.10;;;17.80;62.30;;;;;;5113714;28;20028;-69
2023/06/01 00:26:27;;;;;;;7.70;3.72;;;17.80;62.40;;;;;;5114940;28;20537;-70
2023/06/01 00:28:52;;;;;;;8.15;3.40;;;17.70;62.50;;;;;;5113847;28;20024;-68
2023/06/01 00:31:18;;;;;;;5.22;3.35;;;17.70;62.70;;;;;;5115129;28;20039;-68
2023/06/01 00:33:44;;;;;;;7.82;3.20;;;17.60;62.80;;;;;;5118152;28;20027;-68
2023/06/01 00:36:10;;;;;;;7.63;3.45;;;17.60;63.00;;;;;;5115240;28;20371;-68
2023/06/01 00:38:35;;;;;;;6.13;3.00;;;17.60;63.40;;;;;;5114269;28;20501;-68
2023/06/01 00:41:01;;;;;;;5.88;3.42;;;17.60;63.60;;;;;;5114920;28;20103;-68
2023/06/01 00:43:27;;;;;;;5.18;3.13;;;17.50;63.70;;;;;;5114430;28;20023;-73
2023/06/01 00:45:53;;;;;;;8.45;3.17;;;17.40;64.00;;;;;;5114731;28;20134;-68
2023/06/01 00:48:20;;;;;;;5.93;3.20;;;17.40;64.40;;;;;;5114723;28;20075;-68
2023/06/01 00:50:46;;;;;;;5.03;3.22;;;17.40;64.50;;;;;;5114235;28;20035;-69
2023/06/01 00:53:17;;;;;;;7.10;3.40;;;17.40;64.50;;;;;;5114402;28;20403;-69
2023/06/01 00:55:44;;;;;;;6.80;3.17;;;17.30;64.50;;;;;;5114259;28;20028;-68
2023/06/01 00:58:09;;;;;;;5.03;2.78;;;17.30;64.60;;;;;;5114211;28;20074;-68
2023/06/01 01:00:37;;;;;;;5.78;3.22;;;17.30;64.80;;;;;;5114052;28;20051;-68
2023/06/01 01:03:07;;;;;;;5.70;3.20;;;17.20;64.80;;;;;;5113454;28;20431;-68
2023/06/01 01:05:33;;;;;;;6.95;3.45;;;17.20;64.80;;;;;;5113366;28;20031;-68
2023/06/01 01:08:30;;;;;;;11.70;3.05;;;17.20;64.80;;;;;;5114346;28;20638;-68
2023/06/01 01:11:17;;;;;;;4.78;3.10;;;17.20;65.00;;;;;;5114306;28;20028;-68
2023/06/01 01:14:02;;;;;;;7.68;3.25;;;17.10;64.90;;;;;;5113823;28;20118;-68
2023/06/01 01:16:40;;;;;;;10.15;3.75;;;17.20;65.10;;;;;;5113814;28;20081;-70
2023/06/01 01:19:27;;;;;;;5.57;3.20;;;17.10;64.90;;;;;;5114403;28;20452;-68
2023/06/01 01:22:22;;;;;;;8.07;3.17;;;17.10;65.00;;;;;;5114101;28;20034;-68
2023/06/01 01:25:05;;;;;;;5.82;3.20;;;17.10;65.00;;;;;;5113604;28;20547;-68
2023/06/01 01:27:39;;;;;;;5.03;3.03;;;17.10;65.00;;;;;;5112912;28;20020;-69
2023/06/01 01:30:07;;;;;;;5.32;2.72;;;17.00;65.10;;;;;;5112290;28;20027;-68
2023/06/01 01:32:35;;;;;;;6.93;2.83;;;17.10;65.10;;;;;;5113316;28;20425;-69
2023/06/01 01:35:01;;;;;;;8.75;3.53;;;17.00;65.10;;;;;;5113827;28;20031;-68
2023/06/01 01:37:27;;;;;;;6.03;3.10;;;17.00;65.10;;;;;;5113786;28;20032;-69
2023/06/01 01:39:53;;;;;;;7.35;2.95;;;17.00;65.40;;;;;;5111357;28;20080;-68
2023/06/01 01:42:18;;;;;;;5.55;3.28;;;16.90;65.40;;;;;;5113365;28;20027;-68
2023/06/01 01:44:45;;;;;;;4.85;2.80;;;16.80;65.60;;;;;;5113121;28;20032;-68
2023/06/01 01:47:40;;;;;;;5.95;2.92;;;16.80;65.80;;;;;;5113203;28;20043;-68
2023/06/01 01:50:11;;;;;;;7.35;3.33;;;16.80;65.60;;;;;;5113600;28;20047;-68
2023/06/01 01:52:39;;;;;;;5.97;2.75;;;16.80;65.60;;;;;;5113126;28;20023;-69
2023/06/01 01:55:10;;;;;;;4.55;3.15;;;16.80;65.70;;;;;;5113354;28;20040;-68
2023/06/01 01:57:37;;;;;;;8.70;3.03;;;16.80;65.60;;;;;;5112528;28;20334;-70
2023/06/01 02:00:06;;;;;;;3.90;2.63;;;16.80;65.60;;;;;;5113007;28;20475;-68
2023/06/01 02:02:31;;;;;;;5.28;3.15;;;16.70;65.80;;;;;;5112715;28;20088;-69
2023/06/01 02:04:57;;;;;;;4.00;2.70;;;16.70;65.70;;;;;;5113307;28;20464;-67
2023/06/01 02:07:23;;;;;;;3.72;2.60;;;16.60;65.60;;;;;;5113181;28;20034;-67
2023/06/01 02:09:48;;;;;;;6.82;3.00;;;16.60;65.90;;;;;;5112852;28;20463;-67
2023/06/01 02:12:14;;;;;;;11.90;3.20;;;16.60;66.20;;;;;;5113182;28;20099;-67
2023/06/01 02:14:40;;;;;;;4.72;2.90;;;16.60;66.20;;;;;;5112643;28;20073;-67
2023/06/01 02:17:07;;;;;;;5.10;2.90;;;16.60;66.50;;;;;;5111870;28;20489;-68
2023/06/01 02:19:33;;;;;;;6.55;2.92;;;16.50;66.30;;;;;;5111220;28;20384;-68
2023/06/01 02:21:58;;;;;;;5.03;3.35;;;16.50;66.30;;;;;;5113039;28;20161;-68
2023/06/01 02:24:24;;;;;;;7.00;2.97;;;16.50;66.50;;;;;;5113199;28;20115;-68
2023/06/01 02:26:53;;;;;;;4.88;2.95;;;16.60;66.90;;;;;;5112684;28;20039;-67
2023/06/01 02:29:23;;;;;;;4.65;2.72;;;16.60;66.50;;;;;;5112926;28;20039;-67
2023/06/01 02:31:50;;;;;;;5.47;2.47;;;16.60;66.40;;;;;;5112604;28;20027;-67
2023/06/01 02:34:16;;;;;;;5.72;3.03;;;16.60;66.30;;;;;;5113050;28;20084;-68
2023/06/01 02:36:42;;;;;;;5.95;2.58;;;16.50;65.80;;;;;;5112782;28;20035;-68
2023/06/01 02:39:08;;;;;;;6.15;3.00;;;16.50;65.80;;;;;;5112948;28;20102;-67
2023/06/01 02:41:34;;;;;;;6.43;3.10;;;16.50;66.10;;;;;;5112696;28;20024;-67
2023/06/01 02:44:00;;;;;;;7.95;2.67;;;16.50;66.40;;;;;;5111370;28;20031;-69
2023/06/01 02:46:25;;;;;;;6.25;2.80;;;16.40;66.60;;;;;;5112778;28;20089;-69
2023/06/01 02:48:52;;;;;;;4.75;2.70;;;16.50;66.70;;;;;;5112515;28;20030;-69
2023/06/01 02:51:21;;;;;;;3.88;2.70;;;16.50;66.50;;;;;;5112809;28;20040;-68
2023/06/01 02:53:46;;;;;;;8.10;2.85;;;16.50;66.40;;;;;;5112184;28;20476;-68
2023/06/01 02:56:13;;;;;;;6.90;3.15;;;16.50;66.40;;;;;;5112835;28;20073;-68
2023/06/01 02:58:39;;;;;;;6.72;3.22;;;16.50;66.30;;;;;;5112315;28;20107;-68
2023/06/01 03:01:05;;;;;;;11.73;3.40;;;16.50;66.20;;;;;;5112748;28;20102;-68
2023/06/01 03:03:30;;;;;;;5.63;3.30;;;16.50;66.30;;;;;;5112550;28;20031;-67
2023/06/01 03:05:57;;;;;;;10.32;3.45;;;16.60;66.40;;;;;;5111994;28;20027;-67
2023/06/01 03:08:24;;;;;;;5.95;2.83;;;16.50;66.50;;;;;;5112584;28;20039;-67
2023/06/01 03:10:50;;;;;;;6.03;2.95;;;16.50;66.70;;;;;;5112155;28;20028;-67
2023/06/01 03:13:16;;;;;;;5.40;3.10;;;16.40;66.50;;;;;;5112933;28;20121;-67
2023/06/01 03:15:41;;;;;;;5.38;2.90;;;16.40;66.30;;;;;;5111796;28;20130;-67
2023/06/01 03:18:08;;;;;;;7.57;3.20;;;16.40;66.60;;;;;;5112543;28;20035;-68
2023/06/01 03:20:34;;;;;;;5.18;2.75;;;16.40;66.90;;;;;;5111795;28;20028;-69
2023/06/01 03:23:00;;;;;;;7.82;3.28;;;16.40;67.00;;;;;;5111401;28;20028;-69
2023/06/01 03:25:26;;;;;;;5.75;3.10;;;16.40;67.00;;;;;;5112260;28;20487;-67
2023/06/01 03:27:51;;;;;;;9.20;3.40;;;16.40;67.20;;;;;;5111655;28;20027;-67
2023/06/01 03:30:17;;;;;;;6.63;3.30;;;16.30;67.20;;;;;;5116151;28;20092;-67
2023/06/01 03:32:44;;;;;;;7.50;2.90;;;16.30;67.40;;;;;;5114347;28;20024;-67
2023/06/01 03:35:11;;;;;;;6.68;2.83;;;16.30;67.30;;;;;;5116010;28;20059;-67
2023/06/01 03:37:39;;;;;;;9.57;3.42;;;16.30;67.40;;;;;;5114334;28;20469;-68
2023/06/01 03:40:10;;;;;;;10.75;3.50;;;16.20;67.60;;;;;;5115945;28;20066;-66
2023/06/01 03:42:36;;;;;;;;;;;16.20;68.10;;;;;;5116165;28;20413;-67
2023/06/01 03:45:04;;;;;;;8.73;3.70;;;16.10;68.70;;;;;;5115650;28;19972;-68
2023/06/01 03:47:30;;;;;;;8.73;3.60;;;16.20;68.80;;;;;;5115913;28;20035;-67
2023/06/01 03:49:57;;;;;;;8.73;3.30;;;16.20;69.20;;;;;;5115367;28;20456;-67
2023/06/01 03:52:24;;;;;;;18.23;3.80;;;16.20;69.10;;;;;;5115792;28;20024;-68
2023/06/01 03:54:50;;;;;;;7.55;3.67;;;16.20;69.30;;;;;;5115403;28;20035;-67
2023/06/01 03:57:16;;;;;;;10.50;4.22;;;16.20;69.60;;;;;;5115578;28;20028;-67
2023/06/01 03:59:41;;;;;;;7.53;3.53;;;16.20;69.40;;;;;;5114663;28;20024;-67
2023/06/01 04:02:09;;;;;;;6.10;3.60;;;16.20;69.40;;;;;;5115601;28;20453;-67
2023/06/01 04:04:35;;;;;;;5.97;3.13;;;16.30;69.60;;;;;;5115272;28;20357;-71
2023/06/01 04:07:02;;;;;;;8.30;3.63;;;16.30;69.90;;;;;;5114098;28;20491;-67
2023/06/01 04:09:29;;;;;;;6.60;3.70;;;16.40;70.10;;;;;;5115354;28;20024;-67
2023/06/01 04:11:55;;;;;;;5.60;3.33;;;16.40;70.30;;;;;;5114750;28;20035;-67
2023/06/01 04:14:21;;;;;;;7.55;3.05;;;16.50;70.10;;;;;;5115321;28;20036;-67
2023/06/01 04:16:47;;;;;;;6.15;3.70;;;16.60;70.00;;;;;;5115143;28;20096;-68
2023/06/01 04:19:13;;;;;;;9.15;3.42;;;16.70;69.50;;;;;;5115657;28;20114;-68
2023/06/01 04:21:38;;;;;;;9.77;4.03;;;16.80;68.90;;;;;;5114353;28;20026;-68
2023/06/01 04:24:04;;;;;;;9.57;4.28;;;16.90;68.60;;;;;;5115063;28;20039;-68
2023/06/01 04:26:31;;;;;;;10.13;4.40;;;17.10;67.90;;;;;;5115105;28;20403;-68
2023/06/01 04:28:58;;;;;;;11.25;4.30;;;17.20;67.60;;;;;;5114657;28;20035;-68
2023/06/01 04:31:24;;;;;;;8.38;4.10;;;17.30;67.40;;;;;;5115000;28;20083;-68
2023/06/01 04:33:53;;;;;;;9.77;3.83;;;17.40;67.20;;;;;;5112906;28;20396;-69
2023/06/01 04:36:23;;;;;;;11.00;4.03;;;17.50;66.50;;;;;;5114477;28;20030;-68
2023/06/01 04:38:53;;;;;;;11.70;4.07;;;17.70;65.70;;;;;;5114142;28;20031;-68
2023/06/01 04:41:24;;;;;;;7.57;4.00;;;17.80;65.60;;;;;;5113616;28;20035;-68
2023/06/01 04:43:52;;;;;;;7.38;3.83;;;17.90;65.70;;;;;;5108504;28;20031;-68
2023/06/01 04:46:20;;;;;;;9.05;3.97;;;18.20;65.50;;;;;;5115666;28;20136;-68
2023/06/01 04:48:46;;;;;;;15.45;3.97;;;18.30;64.30;;;;;;5113754;28;20101;-68
2023/06/01 04:51:19;;;;;;;7.32;4.03;;;18.60;64.30;;;;;;5114177;28;20026;-68
2023/06/01 04:53:51;;;;;;;9.32;3.97;;;18.80;63.30;;;;;;5113763;28;20035;-68
2023/06/01 04:56:26;;;;;;;6.15;3.65;;;19.00;62.80;;;;;;5112416;28;20071;-68
2023/06/01 04:58:53;;;;;;;13.40;4.10;;;19.40;61.40;;;;;;5111247;28;20030;-68
2023/06/01 05:01:18;;;;;;;13.32;4.32;;;19.70;60.80;;;;;;5113928;28;20062;-69
2023/06/01 05:03:45;;;;;;;11.50;4.28;;;20.10;60.00;;;;;;5113382;28;20460;-67
2023/06/01 05:06:11;;;;;;;14.18;4.38;;;20.50;58.00;;;;;;5113869;28;20092;-69
2023/06/01 05:08:41;;;;;;;9.98;4.50;;;20.90;57.60;;;;;;5113852;28;20023;-68
2023/06/01 05:11:08;;;;;;;11.43;4.05;;;21.30;56.20;;;;;;5113943;28;20373;-68
2023/06/01 05:13:38;;;;;;;13.60;4.30;;;21.70;54.40;;;;;;5112888;28;20055;-68
2023/06/01 05:16:05;;;;;;;9.07;4.60;;;22.20;53.10;;;;;;5113769;28;20027;-67
2023/06/01 05:18:32;;;;;;;11.65;4.22;;;22.70;52.80;;;;;;5113580;28;20036;-69
2023/06/01 05:20:58;;;;;;;10.50;4.25;;;23.00;51.30;;;;;;5113101;28;20083;-67
2023/06/01 05:23:25;;;;;;;12.38;4.13;;;23.30;51.00;;;;;;5113583;28;20370;-68
2023/06/01 05:25:51;;;;;;;16.35;5.88;;;23.50;50.20;;;;;;5113059;28;20372;-67
2023/06/01 05:28:17;;;;;;;9.40;4.60;;;23.80;48.70;;;;;;5113546;28;20027;-68
2023/06/01 05:30:43;;;;;;;9.60;4.63;;;24.00;47.80;;;;;;5113264;28;20027;-68
2023/06/01 05:33:08;;;;;;;11.75;4.50;;;24.20;48.10;;;;;;5112673;28;20460;-68
2023/06/01 05:35:34;;;;;;;12.55;3.80;;;24.50;47.90;;;;;;5113391;28;20457;-68
2023/06/01 05:38:00;;;;;;;11.45;4.90;;;24.90;47.40;;;;;;5112674;28;20031;-68
2023/06/01 05:40:26;;;;;;;9.00;4.32;;;25.10;45.80;;;;;;5113535;28;20027;-68
2023/06/01 05:42:51;;;;;;;9.68;3.92;;;25.40;46.30;;;;;;5113081;28;20036;-68
2023/06/01 05:45:17;;;;;;;12.05;3.75;;;25.90;45.80;;;;;;5112676;28;20128;-68
2023/06/01 05:47:43;;;;;;;9.82;3.83;;;26.30;44.70;;;;;;5112529;28;20052;-72
2023/06/01 05:50:09;;;;;;;9.63;3.20;;;26.60;44.40;;;;;;5112477;28;20102;-68
2023/06/01 05:52:35;;;;;;;7.18;3.08;;;27.10;43.10;;;;;;5113230;28;20486;-68
2023/06/01 05:55:00;;;;;;;18.40;3.30;;;27.70;41.00;;;;;;5112540;28;20102;-68
2023/06/01 05:57:26;;;;;;;8.45;3.10;;;27.90;41.60;;;;;;5113260;28;20019;-67
2023/06/01 05:59:53;;;;;;;6.57;3.13;;;28.40;40.30;;;;;;5112821;28;20019;-67
2023/06/01 06:02:19;;;;;;;7.03;2.40;;;28.80;40.00;;;;;;5113023;28;20020;-67
2023/06/01 06:04:45;;;;;;;5.75;2.42;;;29.50;37.20;;;;;;5112705;28;20042;-70
2023/06/01 06:07:11;;;;;;;6.95;2.40;;;30.00;36.50;;;;;;5113211;28;20043;-69
2023/06/01 06:09:36;;;;;;;5.32;2.22;;;30.70;35.70;;;;;;5112935;28;20546;-68
2023/06/01 06:12:02;;;;;;;6.03;2.80;;;31.40;35.00;;;;;;5111530;28;20073;-69
2023/06/01 06:14:28;;;;;;;9.20;2.88;;;31.80;34.10;;;;;;5111388;28;20039;-68
2023/06/01 06:16:54;;;;;;;5.07;2.55;;;32.40;33.40;;;;;;5112389;28;20058;-69
2023/06/01 06:19:19;;;;;;;7.32;2.80;;;32.50;33.20;;;;;;5112880;28;20038;-69
2023/06/01 06:21:45;;;;;;;5.35;2.58;;;33.10;32.00;;;;;;5112809;28;20027;-70
2023/06/01 06:24:11;;;;;;;10.32;2.80;;;33.60;32.00;;;;;;5113105;28;20219;-68
2023/06/01 06:26:37;;;;;;;6.13;2.60;;;34.00;31.90;;;;;;5112965;28;20024;-68
2023/06/01 06:29:02;;;;;;;8.57;2.58;;;34.40;31.20;;;;;;5112519;28;20560;-68
2023/06/01 06:31:28;;;;;;;6.10;2.80;;;34.50;30.60;;;;;;5112618;28;20030;-68
2023/06/01 06:33:54;;;;;;;6.95;3.05;;;34.30;30.80;;;;;;5111041;28;20031;-68
2023/06/01 06:36:19;;;;;;;12.88;2.80;;;34.80;30.00;;;;;;5111814;28;20076;-68
2023/06/01 06:38:45;;;;;;;7.13;2.72;;;34.80;30.20;;;;;;5112690;28;20066;-68
2023/06/01 06:41:11;;;;;;;7.10;2.70;;;34.50;30.30;;;;;;5112315;28;20494;-68
2023/06/01 06:43:36;;;;;;;3.95;2.50;;;34.60;29.60;;;;;;5112738;28;20094;-68
2023/06/01 06:46:03;;;;;;;8.50;2.72;;;34.70;30.00;;;;;;5112225;28;20100;-69
2023/06/01 06:48:28;;;;;;;10.40;2.88;;;34.40;30.10;;;;;;5112807;28;20073;-69
2023/06/01 06:50:55;;;;;;;4.78;2.50;;;34.10;30.70;;;;;;5112004;28;20028;-68
2023/06/01 06:53:21;;;;;;;11.30;3.05;;;34.50;30.00;;;;;;5112638;28;20093;-68
2023/06/01 06:55:47;;;;;;;10.25;3.30;;;34.20;30.20;;;;;;5112331;28;20413;-69
2023/06/01 06:58:13;;;;;;;6.68;2.90;;;33.90;30.40;;;;;;5112243;28;20098;-69
2023/06/01 07:00:40;;;;;;;8.95;3.17;;;34.60;29.80;;;;;;5112492;28;20123;-68
2023/06/01 07:03:06;;;;;;;4.43;2.83;;;34.80;29.50;;;;;;5112613;28;20024;-68
2023/06/01 07:05:32;;;;;;;6.68;2.70;;;34.90;29.40;;;;;;5117038;28;20038;-68
2023/06/01 07:07:58;;;;;;;5.72;2.58;;;35.00;29.50;;;;;;5116883;28;20406;-68
2023/06/01 07:10:25;;;;;;;7.07;2.90;;;35.10;29.90;;;;;;5116953;28;20028;-68
2023/06/01 07:12:51;;;;;;;9.23;3.08;;;35.20;30.20;;;;;;5116600;28;20085;-69
2023/06/01 07:15:17;;;;;;;5.05;2.67;;;35.30;29.70;;;;;;5116975;28;20462;-68
2023/06/01 07:17:42;;;;;;;6.10;2.97;;;35.50;29.80;;;;;;5116904;28;20027;-68
2023/06/01 07:20:11;;;;;;;9.10;2.85;;;35.40;29.90;;;;;;5115348;28;20023;-68
2023/06/01 07:22:38;;;;;;;14.90;3.20;;;35.70;30.00;;;;;;5116182;28;20034;-67
2023/06/01 07:25:05;;;;;;;6.15;2.97;;;35.80;29.70;;;;;;5115969;28;20071;-67
2023/06/01 07:27:31;;;;;;;11.43;3.70;;;35.80;29.40;;;;;;5116426;28;20453;-68
2023/06/01 07:29:57;;;;;;;6.85;3.22;;;35.60;29.50;;;;;;5115679;28;20023;-67
2023/06/01 07:32:23;;;;;;;6.05;3.25;;;35.70;29.60;;;;;;5116061;28;20361;-67
2023/06/01 07:34:49;;;;;;;9.75;4.53;;;35.80;30.80;;;;;;5115874;28;20031;-69
2023/06/01 07:37:15;;;;;;;11.20;3.58;;;36.00;30.80;;;;;;5115472;28;20027;-68
2023/06/01 07:39:41;;;;;;;7.20;3.10;;;36.20;30.00;;;;;;5115887;28;20107;-68
2023/06/01 07:42:07;;;;;;;12.38;3.00;;;36.00;29.70;;;;;;5115373;28;20019;-68
2023/06/01 07:44:33;;;;;;;9.80;3.05;;;35.90;30.70;;;;;;5115798;28;20423;-70
2023/06/01 07:46:58;;;;;;;7.85;3.30;;;35.80;29.60;;;;;;5114899;28;20044;-68
2023/06/01 07:49:24;;;;;;;7.70;3.05;;;35.50;30.30;;;;;;5116193;28;20085;-68
2023/06/01 07:51:51;;;;;;;8.68;3.17;;;35.50;30.60;;;;;;5115418;28;20364;-68
2023/06/01 07:54:17;;;;;;;10.90;3.20;;;35.60;30.10;;;;;;5115567;28;20031;-68
2023/06/01 07:56:43;;;;;;;8.27;3.47;;;35.60;29.50;;;;;;5115650;28;20030;-68
2023/06/01 07:59:09;;;;;;;14.15;3.20;;;35.80;29.30;;;;;;5115241;28;20464;-68
2023/06/01 08:01:34;;;;;;;8.55;3.13;;;35.90;28.70;;;;;;5115719;28;20023;-69
2023/06/01 08:04:01;;;;;;;7.78;2.88;;;35.50;28.60;;;;;;5113722;28;20035;-69
2023/06/01 08:06:27;;;;;;;5.85;2.88;;;35.50;28.80;;;;;;5115369;28;20039;-69
2023/06/01 08:08:53;;;;;;;6.13;2.63;;;35.10;29.60;;;;;;5114053;28;20027;-67
2023/06/01 08:11:19;;;;;;;6.50;2.42;;;35.50;28.60;;;;;;5114755;28;20084;-68
2023/06/01 08:13:48;;;;;;;7.75;2.75;;;35.50;29.10;;;;;;5115310;28;20076;-68
2023/06/01 08:16:13;;;;;;;6.30;3.15;;;35.30;28.70;;;;;;5113454;28;20027;-68
2023/06/01 08:18:39;;;;;;;7.60;3.10;;;35.00;28.40;;;;;;5115154;28;20028;-68
2023/06/01 08:21:05;;;;;;;9.02;3.20;;;34.60;28.70;;;;;;5114699;28;20027;-68
2023/06/01 08:23:31;;;;;;;6.28;2.80;;;34.30;29.20;;;;;;5113722;28;20102;-68
2023/06/01 08:25:56;;;;;;;7.50;2.90;;;34.30;29.30;;;;;;5113424;28;20023;-69
2023/06/01 08:28:22;;;;;;;7.22;2.90;;;34.30;29.10;;;;;;5114970;28;20126;-68
2023/06/01 08:30:48;;;;;;;7.47;2.65;;;34.00;29.20;;;;;;5114893;28;20091;-68
2023/06/01 08:33:15;;;;;;;10.50;2.88;;;33.80;29.90;;;;;;5114533;28;20376;-68
2023/06/01 08:35:40;;;;;;;11.30;2.88;;;33.90;30.70;;;;;;5115046;28;20028;-67
2023/06/01 08:38:06;;;;;;;4.47;2.60;;;33.80;30.10;;;;;;5114034;28;20024;-68
2023/06/01 08:40:32;;;;;;;7.03;2.78;;;33.50;30.70;;;;;;5113318;28;20330;-68
2023/06/01 08:42:59;;;;;;;17.25;2.83;;;33.50;30.00;;;;;;5114139;28;20483;-67
2023/06/01 08:45:26;;;;;;;6.15;2.17;;;33.30;30.20;;;;;;5114349;28;20536;-67
2023/06/01 08:47:54;;;;;;;6.97;2.60;;;32.80;29.80;;;;;;5114306;28;20038;-68
2023/06/01 08:50:21;;;;;;;6.90;2.30;;;32.50;30.60;;;;;;5113590;28;20535;-68
2023/06/01 08:52:48;;;;;;;6.18;2.40;;;32.30;30.70;;;;;;5114530;28;20379;-68
2023/06/01 08:55:15;;;;;;;10.38;2.75;;;32.30;32.40;;;;;;5113844;28;20057;-68
2023/06/01 08:57:41;;;;;;;6.30;2.30;;;32.10;31.40;;;;;;5114367;28;20035;-68
2023/06/01 09:00:11;;;;;;;9.18;2.70;;;31.80;30.90;;;;;;5113974;27;20115;-68
2023/06/01 09:02:37;;;;;;;6.90;2.75;;;31.80;32.00;;;;;;5114411;28;20023;-68
2023/06/01 09:05:03;;;;;;;11.18;2.65;;;31.50;31.20;;;;;;5113704;28;20031;-69
2023/06/01 09:07:31;;;;;;;6.72;2.10;;;30.80;31.30;;;;;;5114159;28;20028;-69
2023/06/01 09:09:57;;;;;;;5.38;2.00;;;30.50;31.60;;;;;;5113945;28;20039;-69
2023/06/01 09:12:23;;;;;;;4.40;2.50;;;30.10;31.80;;;;;;5113728;28;20095;-69
2023/06/01 09:14:50;;;;;;;3.85;2.28;;;30.10;32.70;;;;;;5114074;28;20040;-69
2023/06/01 09:17:23;;;;;;;6.43;2.83;;;29.80;31.70;;;;;;5113584;28;20031;-67
2023/06/01 09:19:57;;;;;;;3.78;2.03;;;29.70;32.30;;;;;;5113812;28;20024;-69
2023/06/01 09:22:22;;;;;;;4.65;2.00;;;29.50;32.30;;;;;;5113494;28;20034;-69
2023/06/01 09:24:58;;;;;;;5.57;2.38;;;29.40;31.10;;;;;;5113695;28;20028;-68
2023/06/01 09:27:25;;;;;;;5.07;2.25;;;29.20;31.60;;;;;;5113051;28;20112;-69
2023/06/01 09:29:55;;;;;;;8.00;2.13;;;29.00;32.60;;;;;;5113412;28;20430;-69
2023/06/01 09:32:21;;;;;;;5.30;2.00;;;29.00;32.50;;;;;;5112990;28;20028;-68
2023/06/01 09:34:47;;;;;;;3.70;2.22;;;28.90;32.80;;;;;;5113204;28;20252;-69
2023/06/01 09:37:13;;;;;;;6.72;2.03;;;28.70;33.30;;;;;;5111963;28;20057;-69
2023/06/01 09:39:39;;;;;;;5.15;1.92;;;28.90;33.20;;;;;;5113583;28;20031;-67
2023/06/01 09:42:06;;;;;;;6.72;2.38;;;28.80;33.20;;;;;;5113176;28;20182;-69
2023/06/01 09:44:34;;;;;;;6.03;2.17;;;28.90;33.30;;;;;;5113068;28;20417;-68
2023/06/01 09:47:05;;;;;;;8.10;2.40;;;28.80;32.80;;;;;;5112980;28;20122;-68
2023/06/01 09:49:34;;;;;;;10.30;2.58;;;28.70;32.70;;;;;;5113494;28;20020;-68
2023/06/01 09:52:05;;;;;;;8.07;2.38;;;28.50;33.30;;;;;;5113599;28;20547;-68
2023/06/01 09:54:37;;;;;;;4.53;2.00;;;28.50;33.50;;;;;;5112778;28;20395;-68
2023/06/01 09:57:04;;;;;;;5.53;2.22;;;28.50;34.20;;;;;;5112650;28;20027;-69
2023/06/01 09:59:36;;;;;;;5.80;2.42;;;28.60;34.10;;;;;;5113134;28;20084;-68
2023/06/01 10:02:04;;;;;;;4.65;2.38;;;28.70;34.10;;;;;;5112575;28;20027;-72
2023/06/01 10:04:32;;;;;;;7.28;2.60;;;28.70;34.70;;;;;;5113045;28;20039;-68
2023/06/01 10:06:58;;;;;;;4.45;2.20;;;28.80;34.50;;;;;;5112747;28;20485;-68
2023/06/01 10:09:26;;;;;;;8.73;3.05;;;28.90;34.90;;;;;;5112344;28;20023;-68
2023/06/01 10:11:55;;;;;;;5.15;2.47;;;28.70;33.40;;;;;;5112901;28;20027;-68
2023/06/01 10:14:24;;;;;;;10.68;2.53;;;28.70;33.50;;;;;;5111272;28;20462;-68
2023/06/01 10:16:52;;;;;;;4.75;2.33;;;28.70;33.50;;;;;;5113032;28;20057;-68
2023/06/01 10:19:20;;;;;;;7.63;2.30;;;28.80;34.30;;;;;;5112196;28;20467;-68
2023/06/01 10:21:46;;;;;;;7.47;2.65;;;28.90;34.40;;;;;;5112321;28;20053;-68
2023/06/01 10:24:17;;;;;;;5.53;2.30;;;28.70;32.80;;;;;;5111974;28;20185;-69
2023/06/01 10:27:05;;;;;;;6.60;2.60;;;28.60;33.30;;;;;;5112628;28;20023;-68
2023/06/01 10:29:31;;;;;;;7.15;2.63;;;28.30;33.80;;;;;;5112687;28;20027;-68
2023/06/01 10:31:57;;;;;;;7.40;2.75;;;28.20;34.30;;;;;;5112519;28;20495;-68
2023/06/01 10:34:52;;;;;;;11.00;2.75;;;28.20;33.90;;;;;;5112358;28;20057;-68
2023/06/01 10:37:18;;;;;;;10.25;2.67;;;28.20;34.60;;;;;;5102582;28;20075;-68
2023/06/01 10:39:44;;;;;;;4.85;2.60;;;28.20;34.70;;;;;;5115785;28;20349;-67
2023/06/01 10:42:12;;;;;;;4.93;2.33;;;28.30;35.10;;;;;;5116262;28;20034;-67
2023/06/01 10:44:48;;;;;;;9.18;2.53;;;28.40;35.50;;;;;;5116844;28;20122;-67
2023/06/01 10:47:17;;;;;;;7.35;2.78;;;28.50;35.80;;;;;;5115919;28;20199;-68
2023/06/01 10:50:06;;;;;;;5.60;2.10;;;28.50;34.90;;;;;;5116412;28;20106;-68
2023/06/01 10:52:38;;;;;;;5.95;2.58;;;28.50;34.80;;;;;;5109771;27;20038;-68
2023/06/01 10:55:06;;;;;;;9.52;2.35;;;28.50;35.40;;;;;;5116213;28;20369;-68
2023/06/01 10:57:36;;;;;;;9.93;2.42;;;28.60;35.40;;;;;;5116432;28;20024;-67
2023/06/01 11:00:19;;;;;;;4.30;2.80;;;28.40;34.50;;;;;;5116330;28;20027;-68
2023/06/01 11:02:57;;;;;;;7.47;2.67;;;28.30;34.90;;;;;;5116379;28;20024;-67
2023/06/01 11:05:39;;;;;;;6.05;2.70;;;28.30;34.80;;;;;;5115927;28;20084;-67
2023/06/01 11:08:31;;;;;;;5.90;2.50;;;28.30;34.90;;;;;;5116501;28;20482;-68
2023/06/01 11:11:02;;;;;;;6.28;2.60;;;28.40;35.70;;;;;;5116489;28;20032;-68
2023/06/01 11:13:36;;;;;;;4.93;2.55;;;28.50;35.60;;;;;;5115617;28;20036;-68
2023/06/01 11:16:04;;;;;;;6.20;2.47;;;28.60;35.60;;;;;;5116391;28;20019;-67
2023/06/01 11:18:52;;;;;;;10.23;2.80;;;28.60;35.20;;;;;;5115688;28;20038;-67
2023/06/01 11:21:21;;;;;;;7.90;2.53;;;28.40;34.00;;;;;;5115754;28;20016;-67
2023/06/01 11:23:50;;;;;;;7.28;2.60;;;28.40;34.60;;;;;;5115886;28;20020;-69
2023/06/01 11:26:18;;;;;;;7.38;2.60;;;28.40;35.40;;;;;;5115401;28;20042;-69
2023/06/01 11:28:45;;;;;;;7.85;3.05;;;28.40;35.10;;;;;;5115398;28;20028;-69
2023/06/01 11:31:13;;;;;;;5.30;2.53;;;28.50;35.60;;;;;;5115549;28;20443;-69
2023/06/01 11:33:40;;;;;;;8.23;2.75;;;28.50;35.90;;;;;;5115637;28;20028;-68
2023/06/01 11:36:07;;;;;;;8.95;2.63;;;28.60;35.30;;;;;;5116005;28;20042;-67
2023/06/01 11:38:40;;;;;;;9.45;3.20;;;28.50;35.50;;;;;;5115728;28;20027;-68
2023/06/01 11:41:07;;;;;;;6.88;2.65;;;28.30;35.20;;;;;;5115608;28;20032;-68
2023/06/01 11:43:33;;;;;;;10.40;2.75;;;28.30;34.50;;;;;;5115176;28;20463;-68
2023/06/01 11:46:04;;;;;;;6.45;2.95;;;28.40;35.50;;;;;;5115812;28;20053;-67
2023/06/01 11:48:29;;;;;;;6.28;2.80;;;28.30;35.40;;;;;;5115192;28;20035;-68
2023/06/01 11:50:56;;;;;;;3.25;2.50;;;28.30;35.70;;;;;;5115553;28;20039;-69
2023/06/01 11:53:23;;;;;;;8.52;3.08;;;28.40;36.70;;;;;;5115316;28;20027;-68
2023/06/01 11:55:53;;;;;;;5.35;2.95;;;28.30;35.80;;;;;;5115603;28;20034;-69
2023/06/01 11:58:23;;;;;;;11.10;3.08;;;28.30;35.80;;;;;;5115331;28;20433;-69
2023/06/01 12:00:48;;;;;;;5.97;2.60;;;28.20;35.30;;;;;;5115119;28;20032;-67
2023/06/01 12:03:16;;;;;;;8.55;2.55;;;28.10;35.30;;;;;;5115035;28;20038;-68
2023/06/01 12:05:45;;;;;;;9.95;2.50;;;28.00;35.60;;;;;;5115138;28;20488;-68
2023/06/01 12:08:31;;;;;;;7.30;2.30;;;27.90;35.90;;;;;;5115049;28;20463;-72
2023/06/01 12:10:57;;;;;;;9.70;3.35;;;27.80;36.40;;;;;;5115179;28;20344;-67
2023/06/01 12:13:24;;;;;;;7.68;2.60;;;27.70;35.50;;;;;;5114583;28;20072;-68
2023/06/01 12:15:53;;;;;;;6.70;3.00;;;27.60;36.00;;;;;;5115013;28;20047;-68
2023/06/01 12:18:30;;;;;;;4.68;2.80;;;27.40;36.50;;;;;;5114798;28;20031;-69
2023/06/01 12:20:56;;;;;;;6.43;2.63;;;27.30;36.40;;;;;;5115259;28;20023;-68
2023/06/01 12:23:21;;;;;;;6.60;2.75;;;27.40;36.70;;;;;;5113354;28;20058;-69
2023/06/01 12:25:58;;;;;;;6.40;3.15;;;27.30;37.10;;;;;;5113547;28;20112;-69
2023/06/01 12:28:25;;;;;;;4.85;3.22;;;27.40;37.30;;;;;;5112602;28;20023;-67
2023/06/01 12:31:15;;;;;;;7.85;3.40;;;27.40;36.80;;;;;;5114890;28;20145;-68
2023/06/01 12:33:44;;;;;;;7.05;3.22;;;27.30;37.00;;;;;;5115134;28;20027;-68
2023/06/01 12:36:12;;;;;;;8.73;3.15;;;27.30;37.20;;;;;;5113426;28;20456;-68
2023/06/01 12:38:50;;;;;;;6.30;2.78;;;27.20;36.80;;;;;;5114729;28;20458;-69
2023/06/01 12:41:17;;;;;;;6.97;3.30;;;27.20;37.30;;;;;;5114404;28;20531;-68
2023/06/01 12:43:47;;;;;;;5.38;3.10;;;27.20;37.40;;;;;;5114615;28;20020;-68
2023/06/01 12:46:25;;;;;;;6.40;3.15;;;27.10;37.30;;;;;;5114648;28;20044;-68
2023/06/01 12:48:53;;;;;;;6.28;3.35;;;27.00;37.20;;;;;;5114407;27;20024;-68
2023/06/01 12:51:20;;;;;;;7.30;3.15;;;27.00;37.20;;;;;;5114244;28;20028;-69